Pagina principale
METAR-TAF:

METAR-TAF

Aeroporti :

Aeroporto di Grosseto

Grosseto, Italia

latitudine: 42-45N, longitudine: 011-04E, altezza: 5 m

Osservazione

Il bollettino è stato emesso 26 minuti fa, alle 23:55 UTC
Vento 6 kt da sud/sud-est
Temperature 15°C
Umidità 94%
Pressione 1010 hPa
Visibilità 10 km o più
nessuna nube inferiore a 1500 m e nessun cumulonembo

METAR: LIRS 152355Z 15006KT CAVOK 15/14 Q1010

Ora: 02:21 (00:21 UTC)

Previsione

Il bollettino è stato emesso 1 ora e 21 minuti fa, alle 23:00 UTC
Previsione valida dal 16 alle 00 UTC al 16 alle 09 UTC
Vento 7 kt da sud-est
Visibilità 10 km o più
Poco nuvoloso ad un'altezza di 2000 ft
Temporaneamente
dal 16 alle 00 UTC al 16 alle 05 UTC
Vento 3 kt da direzioni variabili
Visibilità: 5000 m
Nubi sparse ad un'altezza di 1000 ft
foschia

TAF: LIRS 152300Z 1600/1609 14007KT 9999 FEW020 TEMPO 1600/1605 VRB03KT 5000 BR SCT010

Osservazioni e previsioni meteorologiche di più di 4000 aeroporti (messaggi METAR e TAF).

Le stazioni disponibili sono rappresentate dai dischi gialli e rossi sulla carta.

Puntare il mouse per vedere il nome della stazione.

Clicca sopra per visualizzare le osservazioni e previsioni meteorologiche.

Per cambiare la mappa : fare clic sui pulsanti verdi con una croce nera per ingrandire, il pulsante verde con un trattino per diminuire, o sulla freccia verde per le mappe adiacenti.


METAR-TAF: